sensor_id;sensor_type;location;lat;lon;timestamp;temperature;humidity
47618;DHT22;33336;36.728;-4.414;2022-10-31T00:01:15;24.00;99.90
47618;DHT22;33336;36.728;-4.414;2022-10-31T00:06:20;23.90;99.90
47618;DHT22;33336;36.728;-4.414;2022-10-31T00:11:24;24.20;99.90
47618;DHT22;33336;36.728;-4.414;2022-10-31T00:16:28;23.90;99.90
47618;DHT22;33336;36.728;-4.414;2022-10-31T00:21:33;24.20;99.90
47618;DHT22;33336;36.728;-4.414;2022-10-31T00:26:36;24.40;99.90
47618;DHT22;33336;36.728;-4.414;2022-10-31T00:31:40;24.40;99.90
47618;DHT22;33336;36.728;-4.414;2022-10-31T00:36:44;24.50;99.90
47618;DHT22;33336;36.728;-4.414;2022-10-31T00:41:48;23.80;99.90
47618;DHT22;33336;36.728;-4.414;2022-10-31T00:46:51;24.20;99.90
47618;DHT22;33336;36.728;-4.414;2022-10-31T00:51:55;24.30;99.90
47618;DHT22;33336;36.728;-4.414;2022-10-31T00:56:58;24.50;99.90
47618;DHT22;33336;36.728;-4.414;2022-10-31T01:02:01;24.40;99.90
47618;DHT22;33336;36.728;-4.414;2022-10-31T01:07:05;24.10;99.90
47618;DHT22;33336;36.728;-4.414;2022-10-31T01:12:08;24.30;99.90
47618;DHT22;33336;36.728;-4.414;2022-10-31T01:17:11;24.00;99.90
47618;DHT22;33336;36.728;-4.414;2022-10-31T01:22:16;23.80;99.90
47618;DHT22;33336;36.728;-4.414;2022-10-31T01:27:18;24.10;99.90
47618;DHT22;33336;36.728;-4.414;2022-10-31T01:32:22;23.80;99.90
47618;DHT22;33336;36.728;-4.414;2022-10-31T01:37:27;24.00;99.90
47618;DHT22;33336;36.728;-4.414;2022-10-31T01:42:30;24.40;99.30
47618;DHT22;33336;36.728;-4.414;2022-10-31T01:47:39;24.30;99.30
47618;DHT22;33336;36.728;-4.414;2022-10-31T01:52:46;23.90;99.80
47618;DHT22;33336;36.728;-4.414;2022-10-31T01:57:52;24.10;99.30
47618;DHT22;33336;36.728;-4.414;2022-10-31T02:02:56;24.10;99.40
47618;DHT22;33336;36.728;-4.414;2022-10-31T02:08:04;24.10;99.40
47618;DHT22;33336;36.728;-4.414;2022-10-31T02:13:09;24.00;99.20
47618;DHT22;33336;36.728;-4.414;2022-10-31T02:18:13;24.20;99.20
47618;DHT22;33336;36.728;-4.414;2022-10-31T02:23:36;24.30;99.10
47618;DHT22;33336;36.728;-4.414;2022-10-31T02:28:59;24.30;99.10
47618;DHT22;33336;36.728;-4.414;2022-10-31T02:34:15;24.20;99.10
47618;DHT22;33336;36.728;-4.414;2022-10-31T02:39:24;24.50;98.90
47618;DHT22;33336;36.728;-4.414;2022-10-31T02:44:35;23.90;99.60
47618;DHT22;33336;36.728;-4.414;2022-10-31T02:49:53;23.80;99.80
47618;DHT22;33336;36.728;-4.414;2022-10-31T02:54:57;24.00;99.60
47618;DHT22;33336;36.728;-4.414;2022-10-31T03:00:03;23.50;99.90
47618;DHT22;33336;36.728;-4.414;2022-10-31T03:05:14;24.10;99.60
47618;DHT22;33336;36.728;-4.414;2022-10-31T03:10:31;23.90;99.60
47618;DHT22;33336;36.728;-4.414;2022-10-31T03:15:39;24.10;99.60
47618;DHT22;33336;36.728;-4.414;2022-10-31T03:20:50;23.90;99.80
47618;DHT22;33336;36.728;-4.414;2022-10-31T03:25:56;23.40;99.90
47618;DHT22;33336;36.728;-4.414;2022-10-31T03:31:03;23.80;99.90
47618;DHT22;33336;36.728;-4.414;2022-10-31T03:36:08;24.10;99.90
47618;DHT22;33336;36.728;-4.414;2022-10-31T03:41:16;24.10;99.90
47618;DHT22;33336;36.728;-4.414;2022-10-31T03:46:21;24.20;99.60
47618;DHT22;33336;36.728;-4.414;2022-10-31T03:51:31;24.20;99.60
47618;DHT22;33336;36.728;-4.414;2022-10-31T03:56:45;24.30;99.40
47618;DHT22;33336;36.728;-4.414;2022-10-31T04:01:55;24.10;99.60
47618;DHT22;33336;36.728;-4.414;2022-10-31T04:07:01;24.20;99.60
47618;DHT22;33336;36.728;-4.414;2022-10-31T04:12:07;24.30;99.30
47618;DHT22;33336;36.728;-4.414;2022-10-31T04:17:14;24.20;99.40
47618;DHT22;33336;36.728;-4.414;2022-10-31T04:22:19;24.30;99.30
47618;DHT22;33336;36.728;-4.414;2022-10-31T04:27:23;24.20;99.20
47618;DHT22;33336;36.728;-4.414;2022-10-31T04:32:26;24.30;99.30
47618;DHT22;33336;36.728;-4.414;2022-10-31T04:37:30;24.20;99.30
47618;DHT22;33336;36.728;-4.414;2022-10-31T04:42:33;24.20;99.20
47618;DHT22;33336;36.728;-4.414;2022-10-31T04:47:36;24.30;99.20
47618;DHT22;33336;36.728;-4.414;2022-10-31T04:52:40;24.20;99.20
47618;DHT22;33336;36.728;-4.414;2022-10-31T04:57:45;24.20;99.30
47618;DHT22;33336;36.728;-4.414;2022-10-31T05:02:49;24.30;99.10
47618;DHT22;33336;36.728;-4.414;2022-10-31T05:07:55;23.80;99.70
47618;DHT22;33336;36.728;-4.414;2022-10-31T05:12:59;24.10;99.30
47618;DHT22;33336;36.728;-4.414;2022-10-31T05:18:03;23.60;99.00
47618;DHT22;33336;36.728;-4.414;2022-10-31T05:23:07;23.70;98.80
47618;DHT22;33336;36.728;-4.414;2022-10-31T05:28:10;23.90;98.10
47618;DHT22;33336;36.728;-4.414;2022-10-31T05:33:13;23.90;97.70
47618;DHT22;33336;36.728;-4.414;2022-10-31T05:38:17;23.80;98.00
47618;DHT22;33336;36.728;-4.414;2022-10-31T05:43:20;23.90;98.00
47618;DHT22;33336;36.728;-4.414;2022-10-31T05:48:23;24.00;97.90
47618;DHT22;33336;36.728;-4.414;2022-10-31T05:53:27;24.00;97.70
47618;DHT22;33336;36.728;-4.414;2022-10-31T05:58:30;24.10;97.80
47618;DHT22;33336;36.728;-4.414;2022-10-31T06:03:33;23.50;98.40
47618;DHT22;33336;36.728;-4.414;2022-10-31T06:08:37;22.80;99.50
47618;DHT22;33336;36.728;-4.414;2022-10-31T06:13:40;22.90;99.70
47618;DHT22;33336;36.728;-4.414;2022-10-31T06:18:43;22.40;99.90
47618;DHT22;33336;36.728;-4.414;2022-10-31T06:23:47;22.40;99.90
47618;DHT22;33336;36.728;-4.414;2022-10-31T06:28:50;22.70;99.90
47618;DHT22;33336;36.728;-4.414;2022-10-31T06:33:53;22.50;99.90
47618;DHT22;33336;36.728;-4.414;2022-10-31T06:38:57;22.40;99.90
47618;DHT22;33336;36.728;-4.414;2022-10-31T06:44:00;23.10;98.90
47618;DHT22;33336;36.728;-4.414;2022-10-31T06:49:03;23.10;98.10
47618;DHT22;33336;36.728;-4.414;2022-10-31T06:54:07;23.40;98.10
47618;DHT22;33336;36.728;-4.414;2022-10-31T06:59:10;23.10;98.70
47618;DHT22;33336;36.728;-4.414;2022-10-31T07:04:13;22.90;98.70
47618;DHT22;33336;36.728;-4.414;2022-10-31T07:09:17;22.70;98.80
47618;DHT22;33336;36.728;-4.414;2022-10-31T07:14:20;22.70;98.60
47618;DHT22;33336;36.728;-4.414;2022-10-31T07:19:24;22.60;98.90
47618;DHT22;33336;36.728;-4.414;2022-10-31T07:24:28;22.80;98.80
47618;DHT22;33336;36.728;-4.414;2022-10-31T07:29:32;22.90;98.50
47618;DHT22;33336;36.728;-4.414;2022-10-31T07:34:35;22.90;98.50
47618;DHT22;33336;36.728;-4.414;2022-10-31T07:39:40;22.80;98.60
47618;DHT22;33336;36.728;-4.414;2022-10-31T07:44:43;23.40;97.60
47618;DHT22;33336;36.728;-4.414;2022-10-31T07:49:47;23.40;97.20
47618;DHT22;33336;36.728;-4.414;2022-10-31T07:54:51;23.30;97.40
47618;DHT22;33336;36.728;-4.414;2022-10-31T07:59:55;23.60;98.10
47618;DHT22;33336;36.728;-4.414;2022-10-31T08:04:58;23.70;97.80
47618;DHT22;33336;36.728;-4.414;2022-10-31T08:10:05;24.30;97.50
47618;DHT22;33336;36.728;-4.414;2022-10-31T08:15:09;24.20;98.70
47618;DHT22;33336;36.728;-4.414;2022-10-31T08:20:12;24.30;98.40
47618;DHT22;33336;36.728;-4.414;2022-10-31T08:25:16;24.50;98.40
47618;DHT22;33336;36.728;-4.414;2022-10-31T08:30:20;24.40;98.20
47618;DHT22;33336;36.728;-4.414;2022-10-31T08:35:24;24.40;98.00
47618;DHT22;33336;36.728;-4.414;2022-10-31T08:40:29;24.00;97.60
47618;DHT22;33336;36.728;-4.414;2022-10-31T08:45:33;24.50;97.30
47618;DHT22;33336;36.728;-4.414;2022-10-31T08:50:37;24.60;96.70
47618;DHT22;33336;36.728;-4.414;2022-10-31T08:55:43;24.80;96.00
47618;DHT22;33336;36.728;-4.414;2022-10-31T09:00:48;24.30;96.90
47618;DHT22;33336;36.728;-4.414;2022-10-31T09:05:55;24.30;96.50
47618;DHT22;33336;36.728;-4.414;2022-10-31T09:11:00;24.40;97.00
47618;DHT22;33336;36.728;-4.414;2022-10-31T09:16:03;24.90;96.30
47618;DHT22;33336;36.728;-4.414;2022-10-31T09:21:07;25.30;95.90
47618;DHT22;33336;36.728;-4.414;2022-10-31T09:26:11;25.20;95.80
47618;DHT22;33336;36.728;-4.414;2022-10-31T09:31:14;24.70;96.30
47618;DHT22;33336;36.728;-4.414;2022-10-31T09:36:17;24.80;96.30
47618;DHT22;33336;36.728;-4.414;2022-10-31T09:41:27;24.50;96.90
47618;DHT22;33336;36.728;-4.414;2022-10-31T09:46:39;24.70;97.00
47618;DHT22;33336;36.728;-4.414;2022-10-31T09:51:47;25.20;97.10
47618;DHT22;33336;36.728;-4.414;2022-10-31T09:56:53;25.60;96.10
47618;DHT22;33336;36.728;-4.414;2022-10-31T10:02:00;25.70;95.60
47618;DHT22;33336;36.728;-4.414;2022-10-31T10:07:11;26.00;95.50
47618;DHT22;33336;36.728;-4.414;2022-10-31T10:12:33;26.40;94.90
47618;DHT22;33336;36.728;-4.414;2022-10-31T10:17:47;26.40;95.00
47618;DHT22;33336;36.728;-4.414;2022-10-31T10:22:57;26.80;94.50
47618;DHT22;33336;36.728;-4.414;2022-10-31T10:28:14;26.60;94.40
47618;DHT22;33336;36.728;-4.414;2022-10-31T10:33:22;26.70;93.80
47618;DHT22;33336;36.728;-4.414;2022-10-31T10:38:29;27.00;94.10
47618;DHT22;33336;36.728;-4.414;2022-10-31T10:43:36;26.60;94.60
47618;DHT22;33336;36.728;-4.414;2022-10-31T10:48:44;26.50;94.60
47618;DHT22;33336;36.728;-4.414;2022-10-31T10:54:01;27.10;93.90
47618;DHT22;33336;36.728;-4.414;2022-10-31T10:59:07;27.30;93.10
47618;DHT22;33336;36.728;-4.414;2022-10-31T11:04:26;27.30;93.10
47618;DHT22;33336;36.728;-4.414;2022-10-31T11:09:31;27.10;93.30
47618;DHT22;33336;36.728;-4.414;2022-10-31T11:14:44;27.10;92.80
47618;DHT22;33336;36.728;-4.414;2022-10-31T11:19:48;26.80;92.90
47618;DHT22;33336;36.728;-4.414;2022-10-31T11:25:11;27.50;93.10
47618;DHT22;33336;36.728;-4.414;2022-10-31T11:30:15;27.20;93.20
47618;DHT22;33336;36.728;-4.414;2022-10-31T11:35:19;27.00;93.40
47618;DHT22;33336;36.728;-4.414;2022-10-31T11:40:26;26.40;94.20
47618;DHT22;33336;36.728;-4.414;2022-10-31T11:45:32;25.80;95.00
47618;DHT22;33336;36.728;-4.414;2022-10-31T11:50:38;25.50;94.40
47618;DHT22;33336;36.728;-4.414;2022-10-31T11:55:41;26.00;94.40
47618;DHT22;33336;36.728;-4.414;2022-10-31T12:00:49;26.00;94.30
47618;DHT22;33336;36.728;-4.414;2022-10-31T12:05:55;26.20;94.20
47618;DHT22;33336;36.728;-4.414;2022-10-31T12:11:10;26.80;93.70
47618;DHT22;33336;36.728;-4.414;2022-10-31T12:16:18;27.10;93.30
47618;DHT22;33336;36.728;-4.414;2022-10-31T12:21:31;27.60;92.70
47618;DHT22;33336;36.728;-4.414;2022-10-31T12:26:41;27.10;92.90
47618;DHT22;33336;36.728;-4.414;2022-10-31T12:31:55;25.60;93.50
47618;DHT22;33336;36.728;-4.414;2022-10-31T12:37:07;25.80;93.40
47618;DHT22;33336;36.728;-4.414;2022-10-31T12:42:21;26.30;92.70
47618;DHT22;33336;36.728;-4.414;2022-10-31T12:47:46;27.10;92.30
47618;DHT22;33336;36.728;-4.414;2022-10-31T12:53:03;26.80;92.60
47618;DHT22;33336;36.728;-4.414;2022-10-31T12:58:14;26.00;92.90
47618;DHT22;33336;36.728;-4.414;2022-10-31T13:03:30;25.90;93.00
47618;DHT22;33336;36.728;-4.414;2022-10-31T13:08:39;26.00;92.80
47618;DHT22;33336;36.728;-4.414;2022-10-31T13:13:57;26.00;92.90
47618;DHT22;33336;36.728;-4.414;2022-10-31T13:19:07;26.10;92.90
47618;DHT22;33336;36.728;-4.414;2022-10-31T13:24:18;25.60;93.00
47618;DHT22;33336;36.728;-4.414;2022-10-31T13:29:26;26.40;92.80
47618;DHT22;33336;36.728;-4.414;2022-10-31T13:34:35;26.40;92.60
47618;DHT22;33336;36.728;-4.414;2022-10-31T13:40:02;25.90;93.00
47618;DHT22;33336;36.728;-4.414;2022-10-31T13:45:13;25.40;93.70
47618;DHT22;33336;36.728;-4.414;2022-10-31T13:50:23;24.50;94.40
47618;DHT22;33336;36.728;-4.414;2022-10-31T13:55:35;24.00;94.70
47618;DHT22;33336;36.728;-4.414;2022-10-31T14:00:38;24.50;94.50
47618;DHT22;33336;36.728;-4.414;2022-10-31T14:05:52;25.20;94.10
47618;DHT22;33336;36.728;-4.414;2022-10-31T14:10:56;25.00;94.10
47618;DHT22;33336;36.728;-4.414;2022-10-31T14:16:01;25.40;93.90
47618;DHT22;33336;36.728;-4.414;2022-10-31T14:21:16;25.20;93.90
47618;DHT22;33336;36.728;-4.414;2022-10-31T14:26:35;25.70;93.70
47618;DHT22;33336;36.728;-4.414;2022-10-31T14:31:41;26.00;93.40
47618;DHT22;33336;36.728;-4.414;2022-10-31T14:36:51;25.90;93.40
47618;DHT22;33336;36.728;-4.414;2022-10-31T14:42:10;25.50;94.10
47618;DHT22;33336;36.728;-4.414;2022-10-31T14:47:26;25.00;94.10
47618;DHT22;33336;36.728;-4.414;2022-10-31T14:52:35;24.60;94.80
47618;DHT22;33336;36.728;-4.414;2022-10-31T14:57:44;24.30;95.40
47618;DHT22;33336;36.728;-4.414;2022-10-31T15:02:56;24.50;95.20
47618;DHT22;33336;36.728;-4.414;2022-10-31T15:08:02;24.10;95.50
47618;DHT22;33336;36.728;-4.414;2022-10-31T15:13:09;23.80;96.40
47618;DHT22;33336;36.728;-4.414;2022-10-31T15:18:16;23.80;96.50
47618;DHT22;33336;36.728;-4.414;2022-10-31T15:23:24;23.60;96.90
47618;DHT22;33336;36.728;-4.414;2022-10-31T15:28:28;23.70;96.70
47618;DHT22;33336;36.728;-4.414;2022-10-31T15:33:40;23.60;96.80
47618;DHT22;33336;36.728;-4.414;2022-10-31T15:38:44;24.10;96.40
47618;DHT22;33336;36.728;-4.414;2022-10-31T15:43:47;22.90;98.40
47618;DHT22;33336;36.728;-4.414;2022-10-31T15:48:51;23.30;98.10
47618;DHT22;33336;36.728;-4.414;2022-10-31T15:53:55;22.80;98.80
47618;DHT22;33336;36.728;-4.414;2022-10-31T15:59:00;22.60;99.10
47618;DHT22;33336;36.728;-4.414;2022-10-31T16:04:05;22.70;99.20
47618;DHT22;33336;36.728;-4.414;2022-10-31T16:09:24;23.00;98.80
47618;DHT22;33336;36.728;-4.414;2022-10-31T16:14:28;23.10;98.10
47618;DHT22;33336;36.728;-4.414;2022-10-31T16:19:34;23.90;97.50
47618;DHT22;33336;36.728;-4.414;2022-10-31T16:24:45;23.70;96.90
47618;DHT22;33336;36.728;-4.414;2022-10-31T16:29:49;24.30;96.50
47618;DHT22;33336;36.728;-4.414;2022-10-31T16:35:01;23.90;97.00
47618;DHT22;33336;36.728;-4.414;2022-10-31T16:40:09;23.40;97.30
47618;DHT22;33336;36.728;-4.414;2022-10-31T16:45:16;22.80;98.60
47618;DHT22;33336;36.728;-4.414;2022-10-31T16:50:22;23.40;97.60
47618;DHT22;33336;36.728;-4.414;2022-10-31T16:55:26;23.80;97.00
47618;DHT22;33336;36.728;-4.414;2022-10-31T17:00:30;23.70;97.10
47618;DHT22;33336;36.728;-4.414;2022-10-31T17:05:33;24.30;96.40
47618;DHT22;33336;36.728;-4.414;2022-10-31T17:10:40;24.40;96.10
47618;DHT22;33336;36.728;-4.414;2022-10-31T17:15:47;23.30;97.30
47618;DHT22;33336;36.728;-4.414;2022-10-31T17:20:55;22.90;98.10
47618;DHT22;33336;36.728;-4.414;2022-10-31T17:26:01;23.40;97.50
47618;DHT22;33336;36.728;-4.414;2022-10-31T17:31:04;23.80;96.70
47618;DHT22;33336;36.728;-4.414;2022-10-31T17:36:07;23.90;96.90
47618;DHT22;33336;36.728;-4.414;2022-10-31T17:41:11;24.00;96.70
47618;DHT22;33336;36.728;-4.414;2022-10-31T17:46:14;23.20;98.00
47618;DHT22;33336;36.728;-4.414;2022-10-31T17:51:18;23.30;97.30
47618;DHT22;33336;36.728;-4.414;2022-10-31T17:56:22;22.10;99.90
47618;DHT22;33336;36.728;-4.414;2022-10-31T18:01:26;21.70;99.90
47618;DHT22;33336;36.728;-4.414;2022-10-31T18:06:28;22.00;99.90
47618;DHT22;33336;36.728;-4.414;2022-10-31T18:11:34;22.10;99.90
47618;DHT22;33336;36.728;-4.414;2022-10-31T18:16:36;22.10;99.90
47618;DHT22;33336;36.728;-4.414;2022-10-31T18:21:39;21.30;99.90
47618;DHT22;33336;36.728;-4.414;2022-10-31T18:26:43;21.40;99.90
47618;DHT22;33336;36.728;-4.414;2022-10-31T18:31:47;21.70;99.90
47618;DHT22;33336;36.728;-4.414;2022-10-31T18:36:51;22.60;99.90
47618;DHT22;33336;36.728;-4.414;2022-10-31T18:41:56;22.70;99.90
47618;DHT22;33336;36.728;-4.414;2022-10-31T18:46:59;23.40;99.90
47618;DHT22;33336;36.728;-4.414;2022-10-31T18:52:03;23.00;99.90
47618;DHT22;33336;36.728;-4.414;2022-10-31T18:57:07;23.50;99.90
47618;DHT22;33336;36.728;-4.414;2022-10-31T19:02:11;23.70;99.80
47618;DHT22;33336;36.728;-4.414;2022-10-31T19:07:15;23.70;99.70
47618;DHT22;33336;36.728;-4.414;2022-10-31T19:12:19;23.70;99.50
47618;DHT22;33336;36.728;-4.414;2022-10-31T19:17:23;23.90;99.30
47618;DHT22;33336;36.728;-4.414;2022-10-31T19:22:29;23.00;99.90
47618;DHT22;33336;36.728;-4.414;2022-10-31T19:27:34;23.00;99.90
47618;DHT22;33336;36.728;-4.414;2022-10-31T19:32:37;22.90;99.90
47618;DHT22;33336;36.728;-4.414;2022-10-31T19:37:39;22.60;99.90
47618;DHT22;33336;36.728;-4.414;2022-10-31T19:42:44;23.20;99.60
47618;DHT22;33336;36.728;-4.414;2022-10-31T19:47:47;23.20;98.30
47618;DHT22;33336;36.728;-4.414;2022-10-31T19:52:51;21.90;99.90
47618;DHT22;33336;36.728;-4.414;2022-10-31T19:57:55;21.90;99.90
47618;DHT22;33336;36.728;-4.414;2022-10-31T20:02:59;21.80;99.90
47618;DHT22;33336;36.728;-4.414;2022-10-31T20:08:02;22.20;99.90
47618;DHT22;33336;36.728;-4.414;2022-10-31T20:13:07;22.20;99.90
47618;DHT22;33336;36.728;-4.414;2022-10-31T20:18:11;21.90;99.90
47618;DHT22;33336;36.728;-4.414;2022-10-31T20:23:15;22.30;99.90
47618;DHT22;33336;36.728;-4.414;2022-10-31T20:28:19;22.30;99.80
47618;DHT22;33336;36.728;-4.414;2022-10-31T20:33:22;22.00;99.90
47618;DHT22;33336;36.728;-4.414;2022-10-31T20:38:24;22.60;99.70
47618;DHT22;33336;36.728;-4.414;2022-10-31T20:43:29;22.40;99.90
47618;DHT22;33336;36.728;-4.414;2022-10-31T20:48:32;22.10;99.90
47618;DHT22;33336;36.728;-4.414;2022-10-31T20:53:36;22.90;99.80
47618;DHT22;33336;36.728;-4.414;2022-10-31T20:58:41;22.80;99.70
47618;DHT22;33336;36.728;-4.414;2022-10-31T21:03:45;23.30;99.30
47618;DHT22;33336;36.728;-4.414;2022-10-31T21:08:48;23.60;98.60
47618;DHT22;33336;36.728;-4.414;2022-10-31T21:13:53;23.70;98.30
47618;DHT22;33336;36.728;-4.414;2022-10-31T21:18:58;23.70;98.20
47618;DHT22;33336;36.728;-4.414;2022-10-31T21:24:04;23.80;97.90
47618;DHT22;33336;36.728;-4.414;2022-10-31T21:29:09;23.80;97.80
47618;DHT22;33336;36.728;-4.414;2022-10-31T21:34:13;23.90;97.80
47618;DHT22;33336;36.728;-4.414;2022-10-31T21:39:16;23.90;97.60
47618;DHT22;33336;36.728;-4.414;2022-10-31T21:44:20;23.40;98.10
47618;DHT22;33336;36.728;-4.414;2022-10-31T21:49:23;22.60;99.10
47618;DHT22;33336;36.728;-4.414;2022-10-31T21:54:27;22.30;99.70
47618;DHT22;33336;36.728;-4.414;2022-10-31T21:59:31;22.30;99.90
47618;DHT22;33336;36.728;-4.414;2022-10-31T22:04:35;22.80;99.20
47618;DHT22;33336;36.728;-4.414;2022-10-31T22:09:37;22.90;99.00
47618;DHT22;33336;36.728;-4.414;2022-10-31T22:14:43;22.60;99.10
47618;DHT22;33336;36.728;-4.414;2022-10-31T22:19:46;22.70;99.20
47618;DHT22;33336;36.728;-4.414;2022-10-31T22:24:50;23.10;98.60
47618;DHT22;33336;36.728;-4.414;2022-10-31T22:29:54;23.50;98.00
47618;DHT22;33336;36.728;-4.414;2022-10-31T22:34:58;23.40;97.80
47618;DHT22;33336;36.728;-4.414;2022-10-31T22:40:01;23.30;98.10
47618;DHT22;33336;36.728;-4.414;2022-10-31T22:45:07;23.40;98.30
47618;DHT22;33336;36.728;-4.414;2022-10-31T22:50:11;23.50;98.90
47618;DHT22;33336;36.728;-4.414;2022-10-31T22:55:15;23.30;99.50
47618;DHT22;33336;36.728;-4.414;2022-10-31T23:00:20;23.40;99.10
47618;DHT22;33336;36.728;-4.414;2022-10-31T23:05:22;23.10;99.20
47618;DHT22;33336;36.728;-4.414;2022-10-31T23:10:25;22.60;99.90
47618;DHT22;33336;36.728;-4.414;2022-10-31T23:15:37;22.70;99.90
47618;DHT22;33336;36.728;-4.414;2022-10-31T23:20:40;22.60;99.90
47618;DHT22;33336;36.728;-4.414;2022-10-31T23:25:43;22.70;99.90
47618;DHT22;33336;36.728;-4.414;2022-10-31T23:31:04;22.50;99.90
47618;DHT22;33336;36.728;-4.414;2022-10-31T23:36:08;23.00;99.90
47618;DHT22;33336;36.728;-4.414;2022-10-31T23:41:10;23.20;99.50
47618;DHT22;33336;36.728;-4.414;2022-10-31T23:46:15;23.00;99.70
47618;DHT22;33336;36.728;-4.414;2022-10-31T23:51:18;23.30;99.20
47618;DHT22;33336;36.728;-4.414;2022-10-31T23:56:21;23.20;99.20
